sensor_id;sensor_type;location;lat;lon;timestamp;P1;durP1;ratioP1;P2;durP2;ratioP2
36377;SDS011;22402;42.746;23.606;2023-11-19T00:00:42;2.43;;;2.23;;
36377;SDS011;22402;42.746;23.606;2023-11-19T00:05:43;2.50;;;2.30;;
36377;SDS011;22402;42.746;23.606;2023-11-19T00:08:09;2.73;;;2.50;;
36377;SDS011;22402;42.746;23.606;2023-11-19T00:16:06;2.73;;;2.53;;
36377;SDS011;22402;42.746;23.606;2023-11-19T00:18:32;3.00;;;2.70;;
36377;SDS011;22402;42.746;23.606;2023-11-19T00:23:32;8.60;;;2.47;;
36377;SDS011;22402;42.746;23.606;2023-11-19T00:25:58;4.80;;;2.67;;
36377;SDS011;22402;42.746;23.606;2023-11-19T00:28:23;4.50;;;2.93;;
36377;SDS011;22402;42.746;23.606;2023-11-19T00:30:52;3.27;;;2.63;;
36377;SDS011;22402;42.746;23.606;2023-11-19T00:33:18;3.30;;;3.00;;
36377;SDS011;22402;42.746;23.606;2023-11-19T00:35:43;3.60;;;2.67;;
36377;SDS011;22402;42.746;23.606;2023-11-19T00:38:11;5.03;;;3.13;;
36377;SDS011;22402;42.746;23.606;2023-11-19T00:40:37;2.90;;;2.70;;
36377;SDS011;22402;42.746;23.606;2023-11-19T00:45:52;6.80;;;3.00;;
36377;SDS011;22402;42.746;23.606;2023-11-19T00:48:18;2.80;;;2.50;;
36377;SDS011;22402;42.746;23.606;2023-11-19T00:50:43;16.80;;;3.37;;
36377;SDS011;22402;42.746;23.606;2023-11-19T00:53:10;3.40;;;3.10;;
36377;SDS011;22402;42.746;23.606;2023-11-19T00:55:36;2.90;;;2.70;;
36377;SDS011;22402;42.746;23.606;2023-11-19T00:58:01;3.40;;;2.90;;
36377;SDS011;22402;42.746;23.606;2023-11-19T01:03:03;4.80;;;3.50;;
36377;SDS011;22402;42.746;23.606;2023-11-19T01:05:29;3.03;;;2.83;;
36377;SDS011;22402;42.746;23.606;2023-11-19T01:07:54;4.20;;;3.13;;
36377;SDS011;22402;42.746;23.606;2023-11-19T01:10:19;4.93;;;4.43;;
36377;SDS011;22402;42.746;23.606;2023-11-19T01:12:45;4.00;;;3.17;;
36377;SDS011;22402;42.746;23.606;2023-11-19T01:15:11;3.20;;;2.90;;
36377;SDS011;22402;42.746;23.606;2023-11-19T01:17:37;3.37;;;3.07;;
36377;SDS011;22402;42.746;23.606;2023-11-19T01:20:03;5.50;;;3.70;;
36377;SDS011;22402;42.746;23.606;2023-11-19T01:22:30;3.83;;;3.03;;
36377;SDS011;22402;42.746;23.606;2023-11-19T01:24:56;3.97;;;3.57;;
36377;SDS011;22402;42.746;23.606;2023-11-19T01:27:23;4.17;;;3.60;;
36377;SDS011;22402;42.746;23.606;2023-11-19T01:29:48;4.00;;;3.60;;
36377;SDS011;22402;42.746;23.606;2023-11-19T01:32:14;3.83;;;3.53;;
36377;SDS011;22402;42.746;23.606;2023-11-19T01:34:40;4.03;;;3.63;;
36377;SDS011;22402;42.746;23.606;2023-11-19T01:37:05;4.30;;;3.80;;
36377;SDS011;22402;42.746;23.606;2023-11-19T01:39:31;3.87;;;3.43;;
36377;SDS011;22402;42.746;23.606;2023-11-19T01:41:57;3.83;;;3.43;;
36377;SDS011;22402;42.746;23.606;2023-11-19T01:44:22;7.73;;;3.53;;
36377;SDS011;22402;42.746;23.606;2023-11-19T01:46:47;4.97;;;4.13;;
36377;SDS011;22402;42.746;23.606;2023-11-19T01:49:16;6.00;;;4.10;;
36377;SDS011;22402;42.746;23.606;2023-11-19T01:51:42;3.70;;;3.40;;
36377;SDS011;22402;42.746;23.606;2023-11-19T01:54:08;4.40;;;4.00;;
36377;SDS011;22402;42.746;23.606;2023-11-19T01:56:34;4.30;;;3.90;;
36377;SDS011;22402;42.746;23.606;2023-11-19T01:58:59;4.50;;;4.10;;
36377;SDS011;22402;42.746;23.606;2023-11-19T02:01:25;4.97;;;4.50;;
36377;SDS011;22402;42.746;23.606;2023-11-19T02:03:51;5.67;;;5.13;;
36377;SDS011;22402;42.746;23.606;2023-11-19T02:06:16;4.70;;;4.30;;
36377;SDS011;22402;42.746;23.606;2023-11-19T02:08:42;4.90;;;4.43;;
36377;SDS011;22402;42.746;23.606;2023-11-19T02:11:08;5.03;;;3.90;;
36377;SDS011;22402;42.746;23.606;2023-11-19T02:13:34;4.30;;;3.90;;
36377;SDS011;22402;42.746;23.606;2023-11-19T02:16:01;5.40;;;4.20;;
36377;SDS011;22402;42.746;23.606;2023-11-19T02:18:27;4.30;;;3.90;;
36377;SDS011;22402;42.746;23.606;2023-11-19T02:20:55;5.87;;;4.00;;
36377;SDS011;22402;42.746;23.606;2023-11-19T02:23:21;4.60;;;4.20;;
36377;SDS011;22402;42.746;23.606;2023-11-19T02:28:22;6.90;;;4.10;;
36377;SDS011;22402;42.746;23.606;2023-11-19T02:30:48;4.20;;;3.80;;
36377;SDS011;22402;42.746;23.606;2023-11-19T02:33:13;4.00;;;3.70;;
36377;SDS011;22402;42.746;23.606;2023-11-19T02:35:40;4.10;;;3.40;;
36377;SDS011;22402;42.746;23.606;2023-11-19T02:38:06;4.03;;;3.63;;
36377;SDS011;22402;42.746;23.606;2023-11-19T02:40:32;3.73;;;3.43;;
36377;SDS011;22402;42.746;23.606;2023-11-19T02:42:57;4.20;;;3.80;;
36377;SDS011;22402;42.746;23.606;2023-11-19T02:45:23;5.00;;;3.80;;
36377;SDS011;22402;42.746;23.606;2023-11-19T02:47:48;3.30;;;3.00;;
36377;SDS011;22402;42.746;23.606;2023-11-19T02:50:14;4.77;;;4.17;;
36377;SDS011;22402;42.746;23.606;2023-11-19T02:52:43;4.57;;;3.70;;
36377;SDS011;22402;42.746;23.606;2023-11-19T02:55:12;3.80;;;3.47;;
36377;SDS011;22402;42.746;23.606;2023-11-19T02:57:38;5.10;;;3.80;;
36377;SDS011;22402;42.746;23.606;2023-11-19T03:00:11;4.63;;;4.07;;
36377;SDS011;22402;42.746;23.606;2023-11-19T03:02:39;3.53;;;3.23;;
36377;SDS011;22402;42.746;23.606;2023-11-19T03:05:09;4.10;;;3.70;;
36377;SDS011;22402;42.746;23.606;2023-11-19T03:07:35;4.40;;;4.00;;
36377;SDS011;22402;42.746;23.606;2023-11-19T03:10:00;4.40;;;4.00;;
36377;SDS011;22402;42.746;23.606;2023-11-19T03:12:25;4.73;;;4.23;;
36377;SDS011;22402;42.746;23.606;2023-11-19T03:14:51;3.80;;;3.50;;
36377;SDS011;22402;42.746;23.606;2023-11-19T03:17:16;3.93;;;3.60;;
36377;SDS011;22402;42.746;23.606;2023-11-19T03:19:42;3.97;;;3.57;;
36377;SDS011;22402;42.746;23.606;2023-11-19T03:22:07;3.93;;;3.60;;
36377;SDS011;22402;42.746;23.606;2023-11-19T03:24:33;4.30;;;3.90;;
36377;SDS011;22402;42.746;23.606;2023-11-19T03:26:59;4.00;;;3.60;;
36377;SDS011;22402;42.746;23.606;2023-11-19T03:29:24;4.37;;;3.97;;
36377;SDS011;22402;42.746;23.606;2023-11-19T03:31:51;4.93;;;3.80;;
36377;SDS011;22402;42.746;23.606;2023-11-19T03:34:17;4.70;;;3.97;;
36377;SDS011;22402;42.746;23.606;2023-11-19T03:36:42;4.60;;;4.13;;
36377;SDS011;22402;42.746;23.606;2023-11-19T03:39:08;4.40;;;4.00;;
36377;SDS011;22402;42.746;23.606;2023-11-19T03:44:09;6.67;;;4.23;;
36377;SDS011;22402;42.746;23.606;2023-11-19T03:52:28;5.30;;;4.03;;
36377;SDS011;22402;42.746;23.606;2023-11-19T03:54:56;4.90;;;4.13;;
36377;SDS011;22402;42.746;23.606;2023-11-19T03:57:22;4.33;;;3.93;;
36377;SDS011;22402;42.746;23.606;2023-11-19T03:59:48;5.23;;;4.70;;
36377;SDS011;22402;42.746;23.606;2023-11-19T04:02:13;4.80;;;4.30;;
36377;SDS011;22402;42.746;23.606;2023-11-19T04:04:38;5.97;;;4.50;;
36377;SDS011;22402;42.746;23.606;2023-11-19T04:07:04;4.90;;;4.40;;
36377;SDS011;22402;42.746;23.606;2023-11-19T04:09:29;6.00;;;4.67;;
36377;SDS011;22402;42.746;23.606;2023-11-19T04:11:55;5.80;;;5.30;;
36377;SDS011;22402;42.746;23.606;2023-11-19T04:14:20;4.90;;;4.40;;
36377;SDS011;22402;42.746;23.606;2023-11-19T04:16:46;5.60;;;4.77;;
36377;SDS011;22402;42.746;23.606;2023-11-19T04:19:11;5.03;;;4.30;;
36377;SDS011;22402;42.746;23.606;2023-11-19T04:21:37;5.63;;;4.50;;
36377;SDS011;22402;42.746;23.606;2023-11-19T04:24:02;5.30;;;4.80;;
36377;SDS011;22402;42.746;23.606;2023-11-19T04:26:27;4.67;;;4.20;;
36377;SDS011;22402;42.746;23.606;2023-11-19T04:28:53;3.93;;;3.63;;
36377;SDS011;22402;42.746;23.606;2023-11-19T04:31:18;3.93;;;3.60;;
36377;SDS011;22402;42.746;23.606;2023-11-19T04:33:43;6.13;;;5.03;;
36377;SDS011;22402;42.746;23.606;2023-11-19T04:36:09;5.77;;;4.23;;
36377;SDS011;22402;42.746;23.606;2023-11-19T04:38:34;5.07;;;4.50;;
36377;SDS011;22402;42.746;23.606;2023-11-19T04:41:00;6.97;;;5.57;;
36377;SDS011;22402;42.746;23.606;2023-11-19T04:43:25;6.17;;;4.60;;
36377;SDS011;22402;42.746;23.606;2023-11-19T04:45:50;4.90;;;4.40;;
36377;SDS011;22402;42.746;23.606;2023-11-19T04:48:16;5.53;;;4.23;;
36377;SDS011;22402;42.746;23.606;2023-11-19T04:50:41;6.47;;;5.50;;
36377;SDS011;22402;42.746;23.606;2023-11-19T04:53:06;5.40;;;4.40;;
36377;SDS011;22402;42.746;23.606;2023-11-19T04:55:32;4.70;;;4.30;;
36377;SDS011;22402;42.746;23.606;2023-11-19T04:57:57;5.33;;;4.83;;
36377;SDS011;22402;42.746;23.606;2023-11-19T05:00:22;6.20;;;4.97;;
36377;SDS011;22402;42.746;23.606;2023-11-19T05:02:48;6.30;;;4.73;;
36377;SDS011;22402;42.746;23.606;2023-11-19T05:05:15;6.50;;;4.40;;
36377;SDS011;22402;42.746;23.606;2023-11-19T05:07:40;5.17;;;4.60;;
36377;SDS011;22402;42.746;23.606;2023-11-19T05:10:05;5.83;;;5.23;;
36377;SDS011;22402;42.746;23.606;2023-11-19T05:12:31;8.13;;;5.63;;
36377;SDS011;22402;42.746;23.606;2023-11-19T05:14:56;7.50;;;6.03;;
36377;SDS011;22402;42.746;23.606;2023-11-19T05:17:22;8.30;;;5.73;;
36377;SDS011;22402;42.746;23.606;2023-11-19T05:19:47;6.10;;;5.47;;
36377;SDS011;22402;42.746;23.606;2023-11-19T05:22:13;5.23;;;4.77;;
36377;SDS011;22402;42.746;23.606;2023-11-19T05:24:38;5.47;;;4.37;;
36377;SDS011;22402;42.746;23.606;2023-11-19T05:27:04;5.67;;;5.13;;
36377;SDS011;22402;42.746;23.606;2023-11-19T05:29:31;10.50;;;8.30;;
36377;SDS011;22402;42.746;23.606;2023-11-19T05:31:57;14.27;;;10.33;;
36377;SDS011;22402;42.746;23.606;2023-11-19T05:34:22;12.50;;;10.90;;
36377;SDS011;22402;42.746;23.606;2023-11-19T05:36:47;10.87;;;9.50;;
36377;SDS011;22402;42.746;23.606;2023-11-19T05:39:13;9.40;;;7.50;;
36377;SDS011;22402;42.746;23.606;2023-11-19T05:41:38;8.60;;;7.47;;
36377;SDS011;22402;42.746;23.606;2023-11-19T05:44:04;11.90;;;9.27;;
36377;SDS011;22402;42.746;23.606;2023-11-19T05:46:29;16.50;;;12.57;;
36377;SDS011;22402;42.746;23.606;2023-11-19T05:48:54;20.07;;;13.70;;
36377;SDS011;22402;42.746;23.606;2023-11-19T05:51:20;19.40;;;14.37;;
36377;SDS011;22402;42.746;23.606;2023-11-19T05:53:45;24.20;;;15.80;;
36377;SDS011;22402;42.746;23.606;2023-11-19T05:56:11;18.90;;;15.00;;
36377;SDS011;22402;42.746;23.606;2023-11-19T05:58:36;12.43;;;9.70;;
36377;SDS011;22402;42.746;23.606;2023-11-19T06:01:02;10.10;;;8.40;;
36377;SDS011;22402;42.746;23.606;2023-11-19T06:03:28;9.77;;;8.77;;
36377;SDS011;22402;42.746;23.606;2023-11-19T06:05:53;10.53;;;8.40;;
36377;SDS011;22402;42.746;23.606;2023-11-19T06:08:21;9.10;;;8.23;;
36377;SDS011;22402;42.746;23.606;2023-11-19T06:10:47;8.30;;;7.50;;
36377;SDS011;22402;42.746;23.606;2023-11-19T06:13:15;10.87;;;8.60;;
36377;SDS011;22402;42.746;23.606;2023-11-19T06:15:44;7.63;;;6.93;;
36377;SDS011;22402;42.746;23.606;2023-11-19T06:18:09;9.33;;;8.33;;
36377;SDS011;22402;42.746;23.606;2023-11-19T06:20:36;9.47;;;8.50;;
36377;SDS011;22402;42.746;23.606;2023-11-19T06:23:02;9.33;;;8.10;;
36377;SDS011;22402;42.746;23.606;2023-11-19T06:25:27;10.57;;;9.57;;
36377;SDS011;22402;42.746;23.606;2023-11-19T06:27:52;13.07;;;10.40;;
36377;SDS011;22402;42.746;23.606;2023-11-19T06:30:18;9.77;;;8.53;;
36377;SDS011;22402;42.746;23.606;2023-11-19T06:32:44;10.90;;;8.63;;
36377;SDS011;22402;42.746;23.606;2023-11-19T06:35:10;8.50;;;7.70;;
36377;SDS011;22402;42.746;23.606;2023-11-19T06:37:35;7.90;;;7.10;;
36377;SDS011;22402;42.746;23.606;2023-11-19T06:40:01;7.50;;;6.80;;
36377;SDS011;22402;42.746;23.606;2023-11-19T06:42:27;10.30;;;6.93;;
36377;SDS011;22402;42.746;23.606;2023-11-19T06:44:52;6.27;;;5.67;;
36377;SDS011;22402;42.746;23.606;2023-11-19T06:47:17;6.73;;;5.70;;
36377;SDS011;22402;42.746;23.606;2023-11-19T06:49:45;6.20;;;5.03;;
36377;SDS011;22402;42.746;23.606;2023-11-19T06:52:11;8.93;;;5.90;;
36377;SDS011;22402;42.746;23.606;2023-11-19T06:54:38;6.10;;;5.20;;
36377;SDS011;22402;42.746;23.606;2023-11-19T06:57:04;5.80;;;4.90;;
36377;SDS011;22402;42.746;23.606;2023-11-19T06:59:30;6.97;;;5.63;;
36377;SDS011;22402;42.746;23.606;2023-11-19T07:02:00;7.40;;;5.97;;
36377;SDS011;22402;42.746;23.606;2023-11-19T07:04:25;6.57;;;5.87;;
36377;SDS011;22402;42.746;23.606;2023-11-19T07:06:51;8.13;;;5.30;;
36377;SDS011;22402;42.746;23.606;2023-11-19T07:09:18;8.50;;;6.60;;
36377;SDS011;22402;42.746;23.606;2023-11-19T07:11:43;5.97;;;5.30;;
36377;SDS011;22402;42.746;23.606;2023-11-19T07:14:10;6.13;;;5.10;;
36377;SDS011;22402;42.746;23.606;2023-11-19T07:16:36;6.10;;;5.50;;
36377;SDS011;22402;42.746;23.606;2023-11-19T07:19:05;8.30;;;6.60;;
36377;SDS011;22402;42.746;23.606;2023-11-19T07:21:31;6.27;;;5.67;;
36377;SDS011;22402;42.746;23.606;2023-11-19T07:23:58;7.73;;;5.90;;
36377;SDS011;22402;42.746;23.606;2023-11-19T07:26:24;6.10;;;5.10;;
36377;SDS011;22402;42.746;23.606;2023-11-19T07:28:49;6.87;;;5.67;;
36377;SDS011;22402;42.746;23.606;2023-11-19T07:31:15;6.53;;;5.90;;
36377;SDS011;22402;42.746;23.606;2023-11-19T07:33:40;6.83;;;5.03;;
36377;SDS011;22402;42.746;23.606;2023-11-19T07:36:09;8.77;;;6.20;;
36377;SDS011;22402;42.746;23.606;2023-11-19T07:38:34;8.17;;;6.33;;
36377;SDS011;22402;42.746;23.606;2023-11-19T07:41:00;5.97;;;5.37;;
36377;SDS011;22402;42.746;23.606;2023-11-19T07:43:25;8.73;;;5.70;;
36377;SDS011;22402;42.746;23.606;2023-11-19T07:45:50;6.23;;;5.50;;
36377;SDS011;22402;42.746;23.606;2023-11-19T07:48:16;5.97;;;4.63;;
36377;SDS011;22402;42.746;23.606;2023-11-19T07:50:43;7.33;;;5.80;;
36377;SDS011;22402;42.746;23.606;2023-11-19T07:53:08;6.40;;;4.80;;
36377;SDS011;22402;42.746;23.606;2023-11-19T07:55:34;6.63;;;5.33;;
36377;SDS011;22402;42.746;23.606;2023-11-19T07:57:59;6.13;;;5.20;;
36377;SDS011;22402;42.746;23.606;2023-11-19T08:00:24;6.90;;;5.30;;
36377;SDS011;22402;42.746;23.606;2023-11-19T08:02:49;6.77;;;6.03;;
36377;SDS011;22402;42.746;23.606;2023-11-19T08:05:15;6.77;;;6.03;;
36377;SDS011;22402;42.746;23.606;2023-11-19T08:07:40;6.93;;;5.73;;
36377;SDS011;22402;42.746;23.606;2023-11-19T08:10:06;6.27;;;5.23;;
36377;SDS011;22402;42.746;23.606;2023-11-19T08:12:35;6.37;;;5.43;;
36377;SDS011;22402;42.746;23.606;2023-11-19T08:15:01;5.60;;;5.10;;
36377;SDS011;22402;42.746;23.606;2023-11-19T08:17:26;7.03;;;5.20;;
36377;SDS011;22402;42.746;23.606;2023-11-19T08:19:51;6.07;;;5.30;;
36377;SDS011;22402;42.746;23.606;2023-11-19T08:22:17;5.80;;;5.20;;
36377;SDS011;22402;42.746;23.606;2023-11-19T08:24:42;5.17;;;4.43;;
36377;SDS011;22402;42.746;23.606;2023-11-19T08:27:08;7.10;;;5.80;;
36377;SDS011;22402;42.746;23.606;2023-11-19T08:29:33;6.90;;;5.30;;
36377;SDS011;22402;42.746;23.606;2023-11-19T08:32:02;8.07;;;5.27;;
36377;SDS011;22402;42.746;23.606;2023-11-19T08:34:28;6.00;;;5.23;;
36377;SDS011;22402;42.746;23.606;2023-11-19T08:36:54;5.90;;;5.30;;
36377;SDS011;22402;42.746;23.606;2023-11-19T08:39:19;5.57;;;5.07;;
36377;SDS011;22402;42.746;23.606;2023-11-19T08:41:46;6.70;;;5.77;;
36377;SDS011;22402;42.746;23.606;2023-11-19T08:44:11;6.60;;;5.40;;
36377;SDS011;22402;42.746;23.606;2023-11-19T08:46:37;6.80;;;6.03;;
36377;SDS011;22402;42.746;23.606;2023-11-19T08:49:02;8.53;;;6.80;;
36377;SDS011;22402;42.746;23.606;2023-11-19T08:51:28;8.50;;;7.60;;
36377;SDS011;22402;42.746;23.606;2023-11-19T08:53:53;8.67;;;7.80;;
36377;SDS011;22402;42.746;23.606;2023-11-19T08:56:18;8.93;;;7.87;;
36377;SDS011;22402;42.746;23.606;2023-11-19T08:58:44;9.10;;;8.13;;
36377;SDS011;22402;42.746;23.606;2023-11-19T09:01:10;8.00;;;7.20;;
36377;SDS011;22402;42.746;23.606;2023-11-19T09:03:35;7.70;;;6.87;;
36377;SDS011;22402;42.746;23.606;2023-11-19T09:06:01;8.13;;;7.33;;
36377;SDS011;22402;42.746;23.606;2023-11-19T09:08:27;6.43;;;5.83;;
36377;SDS011;22402;42.746;23.606;2023-11-19T09:10:52;6.20;;;5.60;;
36377;SDS011;22402;42.746;23.606;2023-11-19T09:13:18;6.10;;;5.50;;
36377;SDS011;22402;42.746;23.606;2023-11-19T09:15:43;5.90;;;5.30;;
36377;SDS011;22402;42.746;23.606;2023-11-19T09:18:09;7.57;;;5.93;;
36377;SDS011;22402;42.746;23.606;2023-11-19T09:20:34;6.80;;;5.33;;
36377;SDS011;22402;42.746;23.606;2023-11-19T09:23:03;6.13;;;5.53;;
36377;SDS011;22402;42.746;23.606;2023-11-19T09:25:28;7.50;;;5.50;;
36377;SDS011;22402;42.746;23.606;2023-11-19T09:30:33;5.17;;;4.57;;
36377;SDS011;22402;42.746;23.606;2023-11-19T09:32:59;6.47;;;5.13;;
36377;SDS011;22402;42.746;23.606;2023-11-19T09:48:36;5.77;;;4.90;;
36377;SDS011;22402;42.746;23.606;2023-11-19T09:51:04;6.30;;;5.40;;
36377;SDS011;22402;42.746;23.606;2023-11-19T09:53:29;5.97;;;5.37;;
36377;SDS011;22402;42.746;23.606;2023-11-19T09:55:55;7.87;;;4.83;;
36377;SDS011;22402;42.746;23.606;2023-11-19T09:58:21;6.10;;;4.77;;
36377;SDS011;22402;42.746;23.606;2023-11-19T10:00:47;5.67;;;4.83;;
36377;SDS011;22402;42.746;23.606;2023-11-19T10:03:12;6.77;;;6.07;;
36377;SDS011;22402;42.746;23.606;2023-11-19T10:05:39;8.10;;;7.30;;
36377;SDS011;22402;42.746;23.606;2023-11-19T10:08:05;21.03;;;15.37;;
36377;SDS011;22402;42.746;23.606;2023-11-19T10:10:31;16.77;;;14.47;;
36377;SDS011;22402;42.746;23.606;2023-11-19T10:12:57;13.77;;;12.37;;
36377;SDS011;22402;42.746;23.606;2023-11-19T10:15:23;7.57;;;6.77;;
36377;SDS011;22402;42.746;23.606;2023-11-19T10:17:52;8.07;;;5.87;;
36377;SDS011;22402;42.746;23.606;2023-11-19T10:20:19;6.33;;;5.73;;
36377;SDS011;22402;42.746;23.606;2023-11-19T10:22:45;5.37;;;4.67;;
36377;SDS011;22402;42.746;23.606;2023-11-19T10:27:49;5.77;;;5.20;;
36377;SDS011;22402;42.746;23.606;2023-11-19T10:30:17;5.40;;;4.90;;
36377;SDS011;22402;42.746;23.606;2023-11-19T10:32:42;6.60;;;4.93;;
36377;SDS011;22402;42.746;23.606;2023-11-19T10:35:08;5.07;;;4.60;;
36377;SDS011;22402;42.746;23.606;2023-11-19T10:37:33;5.13;;;4.63;;
36377;SDS011;22402;42.746;23.606;2023-11-19T10:40:00;5.80;;;5.20;;
36377;SDS011;22402;42.746;23.606;2023-11-19T10:42:25;5.27;;;4.60;;
36377;SDS011;22402;42.746;23.606;2023-11-19T10:44:51;5.20;;;4.70;;
36377;SDS011;22402;42.746;23.606;2023-11-19T10:47:18;5.90;;;5.40;;
36377;SDS011;22402;42.746;23.606;2023-11-19T10:49:44;7.00;;;5.53;;
36377;SDS011;22402;42.746;23.606;2023-11-19T10:52:11;4.93;;;4.50;;
36377;SDS011;22402;42.746;23.606;2023-11-19T10:54:36;4.57;;;4.17;;
36377;SDS011;22402;42.746;23.606;2023-11-19T10:57:04;5.17;;;4.67;;
36377;SDS011;22402;42.746;23.606;2023-11-19T10:59:31;4.73;;;4.30;;
36377;SDS011;22402;42.746;23.606;2023-11-19T11:01:57;5.87;;;5.37;;
36377;SDS011;22402;42.746;23.606;2023-11-19T11:15:11;6.70;;;4.90;;
36377;SDS011;22402;42.746;23.606;2023-11-19T11:17:39;5.23;;;4.53;;
36377;SDS011;22402;42.746;23.606;2023-11-19T11:20:05;5.27;;;4.77;;
36377;SDS011;22402;42.746;23.606;2023-11-19T11:22:35;4.30;;;3.90;;
36377;SDS011;22402;42.746;23.606;2023-11-19T11:35:53;4.60;;;4.20;;
36377;SDS011;22402;42.746;23.606;2023-11-19T11:38:23;6.47;;;4.90;;
36377;SDS011;22402;42.746;23.606;2023-11-19T11:43:43;5.73;;;5.13;;
36377;SDS011;22402;42.746;23.606;2023-11-19T11:46:08;4.87;;;4.40;;
36377;SDS011;22402;42.746;23.606;2023-11-19T11:48:34;5.27;;;4.00;;
36377;SDS011;22402;42.746;23.606;2023-11-19T11:50:59;5.63;;;4.60;;
36377;SDS011;22402;42.746;23.606;2023-11-19T11:53:25;4.87;;;3.93;;
36377;SDS011;22402;42.746;23.606;2023-11-19T11:58:35;5.37;;;4.87;;
36377;SDS011;22402;42.746;23.606;2023-11-19T12:01:02;4.37;;;3.97;;
36377;SDS011;22402;42.746;23.606;2023-11-19T12:03:28;4.90;;;4.33;;
36377;SDS011;22402;42.746;23.606;2023-11-19T12:05:54;4.90;;;4.40;;
36377;SDS011;22402;42.746;23.606;2023-11-19T12:08:20;4.50;;;3.77;;
36377;SDS011;22402;42.746;23.606;2023-11-19T12:10:49;4.40;;;3.67;;
36377;SDS011;22402;42.746;23.606;2023-11-19T12:13:18;4.40;;;3.60;;
36377;SDS011;22402;42.746;23.606;2023-11-19T12:18:23;3.67;;;3.37;;
36377;SDS011;22402;42.746;23.606;2023-11-19T12:20:48;4.77;;;4.37;;
36377;SDS011;22402;42.746;23.606;2023-11-19T12:23:16;3.47;;;3.17;;
36377;SDS011;22402;42.746;23.606;2023-11-19T12:25:42;5.63;;;4.93;;
36377;SDS011;22402;42.746;23.606;2023-11-19T12:28:13;5.17;;;4.17;;
36377;SDS011;22402;42.746;23.606;2023-11-19T12:30:38;5.60;;;4.63;;
36377;SDS011;22402;42.746;23.606;2023-11-19T12:33:10;7.03;;;3.80;;
36377;SDS011;22402;42.746;23.606;2023-11-19T12:35:45;4.20;;;3.80;;
36377;SDS011;22402;42.746;23.606;2023-11-19T12:38:25;4.60;;;3.90;;
36377;SDS011;22402;42.746;23.606;2023-11-19T12:41:06;4.13;;;3.83;;
36377;SDS011;22402;42.746;23.606;2023-11-19T12:43:31;4.20;;;3.73;;
36377;SDS011;22402;42.746;23.606;2023-11-19T12:45:57;3.93;;;3.63;;
36377;SDS011;22402;42.746;23.606;2023-11-19T12:48:22;4.40;;;4.00;;
36377;SDS011;22402;42.746;23.606;2023-11-19T12:50:54;4.90;;;3.80;;
36377;SDS011;22402;42.746;23.606;2023-11-19T12:53:21;5.83;;;3.10;;
36377;SDS011;22402;42.746;23.606;2023-11-19T12:55:46;3.57;;;3.27;;
36377;SDS011;22402;42.746;23.606;2023-11-19T13:00:59;9.10;;;2.60;;
36377;SDS011;22402;42.746;23.606;2023-11-19T13:03:37;3.40;;;3.10;;
36377;SDS011;22402;42.746;23.606;2023-11-19T13:08:40;3.13;;;2.00;;
36377;SDS011;22402;42.746;23.606;2023-11-19T13:11:05;3.90;;;2.73;;
36377;SDS011;22402;42.746;23.606;2023-11-19T13:13:31;2.67;;;2.47;;
36377;SDS011;22402;42.746;23.606;2023-11-19T13:16:03;3.10;;;2.80;;
36377;SDS011;22402;42.746;23.606;2023-11-19T13:18:30;4.73;;;2.87;;
36377;SDS011;22402;42.746;23.606;2023-11-19T13:20:58;3.70;;;2.80;;
36377;SDS011;22402;42.746;23.606;2023-11-19T13:23:25;3.60;;;2.43;;
36377;SDS011;22402;42.746;23.606;2023-11-19T13:25:50;2.90;;;2.70;;
36377;SDS011;22402;42.746;23.606;2023-11-19T13:28:15;2.77;;;2.57;;
36377;SDS011;22402;42.746;23.606;2023-11-19T13:30:41;3.40;;;2.87;;
36377;SDS011;22402;42.746;23.606;2023-11-19T13:33:06;3.40;;;3.10;;
36377;SDS011;22402;42.746;23.606;2023-11-19T13:35:31;2.90;;;2.70;;
36377;SDS011;22402;42.746;23.606;2023-11-19T13:37:56;2.97;;;2.73;;
36377;SDS011;22402;42.746;23.606;2023-11-19T13:40:22;3.50;;;2.77;;
36377;SDS011;22402;42.746;23.606;2023-11-19T13:42:49;3.60;;;3.30;;
36377;SDS011;22402;42.746;23.606;2023-11-19T13:45:14;3.23;;;2.93;;
36377;SDS011;22402;42.746;23.606;2023-11-19T13:47:40;5.03;;;3.67;;
36377;SDS011;22402;42.746;23.606;2023-11-19T13:50:09;3.77;;;2.90;;
36377;SDS011;22402;42.746;23.606;2023-11-19T13:52:35;5.20;;;3.80;;
36377;SDS011;22402;42.746;23.606;2023-11-19T13:55:03;4.00;;;3.33;;
36377;SDS011;22402;42.746;23.606;2023-11-19T13:57:30;2.87;;;2.67;;
36377;SDS011;22402;42.746;23.606;2023-11-19T13:59:55;3.77;;;3.13;;
36377;SDS011;22402;42.746;23.606;2023-11-19T14:02:20;3.10;;;2.80;;
36377;SDS011;22402;42.746;23.606;2023-11-19T14:04:46;3.20;;;2.80;;
36377;SDS011;22402;42.746;23.606;2023-11-19T14:07:11;2.90;;;2.70;;
36377;SDS011;22402;42.746;23.606;2023-11-19T14:09:37;3.47;;;3.17;;
36377;SDS011;22402;42.746;23.606;2023-11-19T14:12:02;2.80;;;2.60;;
36377;SDS011;22402;42.746;23.606;2023-11-19T14:14:28;3.60;;;3.20;;
36377;SDS011;22402;42.746;23.606;2023-11-19T14:16:53;3.20;;;2.90;;
36377;SDS011;22402;42.746;23.606;2023-11-19T14:19:18;3.13;;;2.83;;
36377;SDS011;22402;42.746;23.606;2023-11-19T14:21:44;3.67;;;3.37;;
36377;SDS011;22402;42.746;23.606;2023-11-19T14:24:10;3.20;;;2.93;;
36377;SDS011;22402;42.746;23.606;2023-11-19T14:26:35;3.53;;;3.20;;
36377;SDS011;22402;42.746;23.606;2023-11-19T14:29:00;3.20;;;2.90;;
36377;SDS011;22402;42.746;23.606;2023-11-19T14:31:27;3.47;;;3.17;;
36377;SDS011;22402;42.746;23.606;2023-11-19T14:33:52;3.20;;;2.90;;
36377;SDS011;22402;42.746;23.606;2023-11-19T14:36:18;3.13;;;2.83;;
36377;SDS011;22402;42.746;23.606;2023-11-19T14:38:43;3.33;;;3.03;;
36377;SDS011;22402;42.746;23.606;2023-11-19T14:41:09;4.40;;;3.10;;
36377;SDS011;22402;42.746;23.606;2023-11-19T14:43:34;3.80;;;3.10;;
36377;SDS011;22402;42.746;23.606;2023-11-19T14:45:59;4.30;;;3.90;;
36377;SDS011;22402;42.746;23.606;2023-11-19T14:48:25;3.43;;;3.13;;
36377;SDS011;22402;42.746;23.606;2023-11-19T14:50:51;2.97;;;2.77;;
36377;SDS011;22402;42.746;23.606;2023-11-19T14:53:17;3.40;;;3.10;;
36377;SDS011;22402;42.746;23.606;2023-11-19T14:55:42;2.87;;;2.67;;
36377;SDS011;22402;42.746;23.606;2023-11-19T14:58:07;3.43;;;2.97;;
36377;SDS011;22402;42.746;23.606;2023-11-19T15:00:33;5.50;;;3.30;;
36377;SDS011;22402;42.746;23.606;2023-11-19T15:02:58;3.13;;;2.93;;
36377;SDS011;22402;42.746;23.606;2023-11-19T15:05:24;3.23;;;2.93;;
36377;SDS011;22402;42.746;23.606;2023-11-19T15:07:50;4.70;;;3.40;;
36377;SDS011;22402;42.746;23.606;2023-11-19T15:10:15;3.87;;;3.00;;
36377;SDS011;22402;42.746;23.606;2023-11-19T15:12:40;3.60;;;3.20;;
36377;SDS011;22402;42.746;23.606;2023-11-19T15:15:07;3.70;;;2.97;;
36377;SDS011;22402;42.746;23.606;2023-11-19T15:17:33;3.20;;;2.90;;
36377;SDS011;22402;42.746;23.606;2023-11-19T15:19:58;5.37;;;3.20;;
36377;SDS011;22402;42.746;23.606;2023-11-19T15:22:24;2.70;;;2.50;;
36377;SDS011;22402;42.746;23.606;2023-11-19T15:24:49;3.10;;;2.80;;
36377;SDS011;22402;42.746;23.606;2023-11-19T15:27:15;3.80;;;3.40;;
36377;SDS011;22402;42.746;23.606;2023-11-19T15:29:41;2.93;;;2.60;;
36377;SDS011;22402;42.746;23.606;2023-11-19T15:32:06;3.13;;;2.83;;
36377;SDS011;22402;42.746;23.606;2023-11-19T15:34:32;3.33;;;2.80;;
36377;SDS011;22402;42.746;23.606;2023-11-19T15:36:58;4.37;;;3.30;;
36377;SDS011;22402;42.746;23.606;2023-11-19T15:39:23;2.87;;;2.67;;
36377;SDS011;22402;42.746;23.606;2023-11-19T15:41:49;3.77;;;3.33;;
36377;SDS011;22402;42.746;23.606;2023-11-19T15:44:14;3.33;;;3.03;;
36377;SDS011;22402;42.746;23.606;2023-11-19T15:46:40;4.30;;;3.40;;